Time;durP1;ratioP1;P1;durP2;ratioP2;P2;SDS_P1;SDS_P2;PMS_P1;PMS_P2;Temp;Humidity;BMP_temperature;BMP_pressure;BME280_temperature;BME280_humidity;BME280_pressure;Samples;Min_cycle;Max_cycle;Signal;HPM_P1;HPM_P2
2021/03/10 00:00:10;;;;;;;33.37;21.13;;;;;;;6.30;76.78;94595.94;5095505;28;20435;-78
2021/03/10 00:02:37;;;;;;;30.03;18.80;;;;;;;6.11;75.63;94601.69;5095762;28;20916;-78
2021/03/10 00:05:05;;;;;;;35.60;20.13;;;;;;;6.11;77.19;94600.84;5095525;28;20876;-77
2021/03/10 00:07:31;;;;;;;35.80;19.60;;;;;;;6.13;77.02;94594.59;5095380;28;20427;-77
2021/03/10 00:09:58;;;;;;;32.47;21.10;;;;;;;6.18;77.80;94591.63;5095445;28;20451;-78
2021/03/10 00:12:25;;;;;;;35.07;20.27;;;;;;;6.24;78.28;94588.59;5043274;28;20440;-78
2021/03/10 00:14:51;;;;;;;28.50;18.63;;;;;;;6.26;77.88;94580.66;5094900;28;20443;-78
2021/03/10 00:17:17;;;;;;;24.10;16.13;;;;;;;6.27;76.16;94590.13;5095150;28;20436;-78
2021/03/10 00:19:44;;;;;;;25.00;16.50;;;;;;;6.08;77.08;94591.47;5059649;28;20492;-78
2021/03/10 00:22:10;;;;;;;33.27;19.00;;;;;;;6.04;78.51;94589.19;5095240;28;20455;-78
2021/03/10 00:24:37;;;;;;;28.97;18.80;;;;;;;6.21;78.05;94597.47;5094965;28;20451;-78
2021/03/10 00:27:04;;;;;;;32.57;19.97;;;;;;;6.14;78.24;94587.59;5095259;28;20482;-78
2021/03/10 00:29:31;;;;;;;32.77;20.00;;;;;;;6.26;78.55;94572.84;5095197;28;20454;-78
2021/03/10 00:31:58;;;;;;;29.77;19.63;;;;;;;6.35;78.40;94572.16;5095081;28;20443;-78
2021/03/10 00:34:24;;;;;;;29.60;19.00;;;;;;;6.25;79.49;94565.97;5095258;28;20479;-78
2021/03/10 00:36:51;;;;;;;29.77;18.97;;;;;;;6.01;79.58;94559.00;5095346;28;20443;-78
2021/03/10 00:39:17;;;;;;;34.57;21.10;;;;;;;5.96;80.63;94555.06;5095054;28;20443;-78
2021/03/10 00:41:43;;;;;;;34.53;21.67;;;;;;;5.80;81.53;94556.16;5094970;28;20939;-78
2021/03/10 00:44:10;;;;;;;30.73;20.40;;;;;;;5.53;83.92;94547.69;5095111;28;20444;-78
2021/03/10 00:46:37;;;;;;;38.30;22.13;;;;;;;5.78;82.86;94554.56;5095169;28;20535;-78
2021/03/10 00:49:04;;;;;;;32.40;21.17;;;;;;;5.96;82.59;94550.69;5095186;28;20845;-78
2021/03/10 00:51:30;;;;;;;33.77;21.00;;;;;;;6.12;81.72;94545.22;5094399;28;20451;-78
2021/03/10 00:53:56;;;;;;;35.00;22.97;;;;;;;6.14;81.64;94535.50;5094969;28;20435;-78
2021/03/10 00:56:23;;;;;;;35.60;21.90;;;;;;;5.92;80.44;94527.56;5042960;28;20439;-78
2021/03/10 00:58:50;;;;;;;47.33;24.10;;;;;;;6.03;81.29;94535.44;5094773;28;20450;-78
2021/03/10 01:01:16;;;;;;;33.20;23.80;;;;;;;5.97;81.40;94536.72;5009785;28;20428;-78
2021/03/10 01:03:43;;;;;;;30.77;22.20;;;;;;;6.15;81.05;94540.59;5094454;28;20442;-77
2021/03/10 01:06:13;;;;;;;31.83;22.60;;;;;;;6.25;80.35;94530.31;5094639;28;20471;-78
2021/03/10 01:08:39;;;;;;;34.77;22.40;;;;;;;6.25;80.33;94517.28;5094432;28;20788;-78
2021/03/10 01:11:06;;;;;;;36.10;23.80;;;;;;;6.36;80.57;94513.88;5093704;28;20443;-78
2021/03/10 01:13:33;;;;;;;38.33;22.90;;;;;;;6.19;80.53;94504.72;5094463;28;20450;-78
2021/03/10 01:15:59;;;;;;;40.33;22.87;;;;;;;6.18;80.34;94505.69;5094060;28;20436;-78
2021/03/10 01:18:25;;;;;;;31.97;21.07;;;;;;;5.99;81.99;94505.34;5094695;28;20446;-78
2021/03/10 01:20:52;;;;;;;33.33;22.20;;;;;;;6.11;81.34;94500.09;5094295;28;20458;-78
2021/03/10 01:23:19;;;;;;;39.80;22.23;;;;;;;5.92;82.79;94507.59;5042149;28;20492;-78
2021/03/10 01:25:45;;;;;;;39.30;23.17;;;;;;;5.98;83.21;94501.91;5093940;28;20529;-78
2021/03/10 01:28:11;;;;;;;43.40;24.70;;;;;;;5.95;83.57;94502.16;5094017;28;20427;-78
2021/03/10 01:30:38;;;;;;;39.30;25.20;;;;;;;6.13;83.96;94494.78;5042121;28;20444;-78
2021/03/10 01:33:04;;;;;;;46.37;25.07;;;;;;;6.28;82.38;94493.63;5093966;28;20435;-79
2021/03/10 01:35:30;;;;;;;43.30;24.43;;;;;;;6.04;84.14;94495.41;5093688;28;20467;-78
2021/03/10 01:37:58;;;;;;;41.20;25.73;;;;;;;6.15;83.19;94487.66;5093646;28;20440;-78
2021/03/10 01:40:25;;;;;;;34.43;22.87;;;;;;;5.94;84.72;94491.84;5093685;28;21075;-78
2021/03/10 01:42:52;;;;;;;46.00;25.87;;;;;;;5.88;84.46;94493.94;5093717;28;20939;-78
2021/03/10 01:45:19;;;;;;;40.73;25.77;;;;;;;5.65;85.90;94501.72;5093875;28;20491;-78
2021/03/10 01:47:47;;;;;;;42.13;24.30;;;;;;;5.86;85.33;94497.59;5093597;28;20443;-78
2021/03/10 01:50:17;;;;;;;37.83;24.30;;;;;;;5.88;85.43;94493.09;5093752;28;20510;-78
2021/03/10 01:52:43;;;;;;;44.60;26.23;;;;;;;5.80;85.48;94483.25;5093558;28;20909;-78
2021/03/10 01:55:12;;;;;;;43.53;24.23;;;;;;;5.73;85.93;94489.81;5093315;28;20439;-78
2021/03/10 01:57:39;;;;;;;37.83;25.97;;;;;;;5.96;85.40;94482.13;5093993;28;20792;-78
2021/03/10 02:00:08;;;;;;;43.77;25.47;;;;;;;5.85;85.48;94480.31;5093320;28;20869;-78
2021/03/10 02:02:34;;;;;;;38.40;24.47;;;;;;;5.51;87.11;94474.94;5088689;28;20500;-78
2021/03/10 02:05:01;;;;;;;39.70;26.03;;;;;;;5.58;87.07;94464.91;5093263;28;20444;-78
2021/03/10 02:07:34;;;;;;;46.67;27.80;;;;;;;5.55;86.99;94463.38;5093913;28;20447;-78
2021/03/10 02:10:11;;;;;;;44.63;23.97;;;;;;;5.57;88.75;94465.84;5093544;28;20464;-78
2021/03/10 02:12:45;;;;;;;41.50;25.67;;;;;;;5.48;88.73;94456.91;5074660;28;20923;-78
2021/03/10 02:15:19;;;;;;;43.23;26.80;;;;;;;5.49;88.90;94458.59;5093403;28;20476;-78
2021/03/10 02:17:52;;;;;;;41.83;25.47;;;;;;;5.70;89.25;94457.97;5093685;28;20794;-78
2021/03/10 02:20:35;;;;;;;45.90;28.87;;;;;;;5.91;89.10;94453.84;5093557;28;20497;-78
2021/03/10 02:23:16;;;;;;;43.50;27.73;;;;;;;5.82;88.06;94441.47;5096698;28;20439;-78
2021/03/10 02:26:02;;;;;;;44.03;26.27;;;;;;;5.69;87.62;94449.34;5097066;28;20479;-78
2021/03/10 02:28:31;;;;;;;44.37;24.50;;;;;;;5.59;87.69;94445.75;5097716;28;20447;-78
2021/03/10 02:31:00;;;;;;;43.43;28.10;;;;;;;5.74;87.99;94441.19;5097287;28;20447;-78
2021/03/10 02:33:29;;;;;;;51.20;28.30;;;;;;;5.75;88.56;94441.06;5097233;28;20443;-78
2021/03/10 02:36:02;;;;;;;46.53;28.07;;;;;;;5.72;89.07;94449.09;5097424;28;20584;-78
2021/03/10 02:38:29;;;;;;;47.70;28.30;;;;;;;5.62;89.67;94444.69;5097465;28;20447;-78
2021/03/10 02:40:56;;;;;;;42.43;25.97;;;;;;;5.82;89.07;94438.88;5097054;28;20493;-77
2021/03/10 02:43:25;;;;;;;49.80;27.07;;;;;;;5.59;89.84;94430.97;5097350;28;20439;-77
2021/03/10 02:45:55;;;;;;;44.53;25.97;;;;;;;5.68;90.48;94426.84;5078641;28;20475;-78
2021/03/10 02:48:24;;;;;;;44.93;26.60;;;;;;;5.83;89.99;94424.91;5098493;28;20452;-78
2021/03/10 02:50:51;;;;;;;44.50;25.97;;;;;;;5.85;89.93;94420.41;5099250;28;20451;-77
2021/03/10 02:53:17;;;;;;;49.40;28.90;;;;;;;5.89;89.80;94416.66;5098919;28;20542;-77
2021/03/10 02:55:44;;;;;;;44.70;24.70;;;;;;;5.73;90.79;94406.50;5096603;28;20443;-77
2021/03/10 02:58:11;;;;;;;42.63;24.90;;;;;;;5.68;90.98;94413.00;5097225;28;20918;-77
2021/03/10 03:00:38;;;;;;;45.33;26.33;;;;;;;5.80;91.05;94414.72;5096920;28;20476;-77
2021/03/10 03:03:06;;;;;;;44.20;23.93;;;;;;;5.68;90.06;94413.00;5096744;28;20443;-77
2021/03/10 03:05:33;;;;;;;45.60;26.00;;;;;;;5.69;90.03;94414.66;5096822;28;20595;-77
2021/03/10 03:08:01;;;;;;;46.20;26.77;;;;;;;5.78;90.08;94411.38;5096885;28;20450;-77
2021/03/10 03:10:30;;;;;;;44.67;25.77;;;;;;;5.86;90.98;94398.66;5096938;28;20500;-77
2021/03/10 03:12:56;;;;;;;53.43;25.37;;;;;;;5.85;90.23;94404.81;5096831;28;20447;-77
2021/03/10 03:15:24;;;;;;;40.93;24.70;;;;;;;5.87;89.65;94398.53;5101483;28;20450;-77
2021/03/10 03:17:52;;;;;;;43.33;23.30;;;;;;;5.56;91.10;94397.38;5102501;28;20447;-77
2021/03/10 03:20:21;;;;;;;38.33;21.70;;;;;;;5.51;91.42;94398.66;5101617;28;20447;-77
2021/03/10 03:22:50;;;;;;;42.70;24.20;;;;;;;5.47;91.28;94408.41;5102359;28;20435;-78
2021/03/10 03:25:18;;;;;;;45.23;24.13;;;;;;;5.34;92.39;94402.44;5101761;28;20437;-78
2021/03/10 03:27:47;;;;;;;47.70;21.20;;;;;;;5.19;93.05;94393.97;5066440;28;20435;-77
2021/03/10 03:30:15;;;;;;;45.67;21.60;;;;;;;5.16;93.31;94398.56;5083593;28;20447;-77
2021/03/10 03:32:42;;;;;;;34.87;21.77;;;;;;;4.95;95.15;94406.97;5101517;28;20439;-78
2021/03/10 03:35:11;;;;;;;38.20;20.40;;;;;;;4.80;94.86;94410.63;5099441;28;20494;-78
2021/03/10 03:37:38;;;;;;;32.77;18.67;;;;;;;4.70;96.38;94406.19;5097336;28;20447;-78
2021/03/10 03:40:07;;;;;;;32.77;18.03;;;;;;;4.73;96.26;94404.22;5096701;28;20452;-78
2021/03/10 03:42:34;;;;;;;38.47;19.20;;;;;;;4.66;95.82;94405.59;5045954;28;20474;-78
2021/03/10 03:45:00;;;;;;;33.77;18.90;;;;;;;4.65;96.65;94398.72;5097136;28;20447;-78
2021/03/10 03:47:27;;;;;;;28.13;15.87;;;;;;;4.71;95.94;94408.69;5096281;28;20467;-77
2021/03/10 03:49:54;;;;;;;27.13;17.67;;;;;;;4.70;95.62;94404.44;5096853;28;20482;-78
2021/03/10 03:52:20;;;;;;;28.60;16.27;;;;;;;4.85;95.71;94400.75;5096539;28;20446;-77
2021/03/10 03:54:47;;;;;;;37.73;19.60;;;;;;;4.81;95.14;94401.91;5096397;28;20771;-77
2021/03/10 03:57:13;;;;;;;31.70;19.77;;;;;;;4.94;94.48;94392.31;5096293;28;20439;-78
2021/03/10 03:59:40;;;;;;;26.40;16.47;;;;;;;4.91;95.24;94402.06;5043771;28;20497;-77
2021/03/10 04:02:07;;;;;;;34.23;20.63;;;;;;;5.03;94.45;94392.59;5060448;28;20439;-78
2021/03/10 04:04:33;;;;;;;41.63;21.33;;;;;;;5.15;93.36;94400.34;5095531;28;20440;-78
2021/03/10 04:07:00;;;;;;;37.63;20.83;;;;;;;5.35;93.30;94406.72;5095462;28;20471;-78
2021/03/10 04:09:26;;;;;;;27.77;16.87;;;;;;;5.46;92.72;94393.75;5043907;28;20450;-77
2021/03/10 04:11:54;;;;;;;39.73;21.33;;;;;;;5.44;91.83;94398.25;5095591;28;20447;-78
2021/03/10 04:14:20;;;;;;;36.53;19.53;;;;;;;5.29;92.94;94399.38;5095505;28;20451;-77
2021/03/10 04:16:46;;;;;;;35.33;20.50;;;;;;;5.26;92.88;94397.81;5095383;28;20450;-78
2021/03/10 04:19:13;;;;;;;41.57;22.60;;;;;;;5.29;92.98;94384.59;5095486;28;20447;-78
2021/03/10 04:21:39;;;;;;;33.43;19.10;;;;;;;5.14;93.81;94390.03;5095268;28;20802;-77
2021/03/10 04:24:07;;;;;;;36.90;20.10;;;;;;;5.07;94.57;94388.81;5095439;28;20450;-78
2021/03/10 04:26:34;;;;;;;39.50;23.40;;;;;;;5.20;93.95;94387.00;5095263;28;20483;-77
2021/03/10 04:29:01;;;;;;;36.43;22.90;;;;;;;5.18;93.90;94384.50;5095502;28;20457;-78
2021/03/10 04:31:27;;;;;;;40.33;23.27;;;;;;;5.27;94.18;94377.84;5095648;28;20571;-78
2021/03/10 04:33:53;;;;;;;46.23;24.60;;;;;;;5.43;94.50;94380.13;5095083;28;20428;-78
2021/03/10 04:36:20;;;;;;;36.50;21.10;;;;;;;5.07;94.20;94381.84;5094854;28;20454;-77
2021/03/10 04:38:46;;;;;;;34.90;22.10;;;;;;;4.89;96.08;94378.78;5094891;28;20454;-78
2021/03/10 04:41:12;;;;;;;44.03;22.43;;;;;;;5.08;95.75;94382.69;5095324;28;20447;-78
2021/03/10 04:43:39;;;;;;;43.80;23.63;;;;;;;4.95;96.76;94375.78;5095228;28;20454;-77
2021/03/10 04:46:06;;;;;;;48.73;21.23;;;;;;;4.90;96.72;94380.44;5094451;28;20479;-78
2021/03/10 04:48:32;;;;;;;41.17;22.10;;;;;;;5.04;96.80;94376.06;5095195;28;20796;-78
2021/03/10 04:50:59;;;;;;;38.17;21.07;;;;;;;5.08;96.78;94375.72;5094832;28;20826;-78
2021/03/10 04:53:25;;;;;;;45.57;24.90;;;;;;;5.24;95.82;94380.66;5094581;28;20447;-78
2021/03/10 04:55:51;;;;;;;38.13;22.60;;;;;;;5.29;95.31;94368.16;5095273;28;20447;-78
2021/03/10 04:58:18;;;;;;;43.60;23.00;;;;;;;5.32;94.74;94377.50;5094761;28;20477;-78
2021/03/10 05:00:44;;;;;;;48.67;23.70;;;;;;;5.07;95.03;94358.47;5094943;28;20435;-78
2021/03/10 05:03:11;;;;;;;39.13;19.27;;;;;;;4.93;96.14;94364.66;5094648;28;20534;-78
2021/03/10 05:05:38;;;;;;;39.70;23.23;;;;;;;4.80;97.12;94363.84;5093906;28;20878;-77
2021/03/10 05:08:05;;;;;;;35.55;19.98;;;;;;;4.64;98.08;94365.88;5094037;28;20990;-77
2021/03/10 05:10:31;;;;;;;37.03;19.80;;;;;;;4.55;99.02;94369.94;5094566;28;20193;-78
2021/03/10 05:12:57;;;;;;;32.70;17.67;;;;;;;4.38;100.00;94369.47;5094906;28;20443;-83
2021/03/10 05:15:24;;;;;;;37.63;17.67;;;;;;;4.29;100.00;94371.72;5094478;28;20435;-78
2021/03/10 05:17:50;;;;;;;37.23;22.10;;;;;;;4.33;100.00;94374.94;5059259;28;20443;-78
2021/03/10 05:20:17;;;;;;;35.50;18.03;;;;;;;4.25;100.00;94372.06;5094549;28;20939;-80
2021/03/10 05:22:44;;;;;;;27.90;17.67;;;;;;;3.98;100.00;94375.59;5094743;28;20424;-79
2021/03/10 05:25:11;;;;;;;35.20;21.60;;;;;;;4.03;100.00;94372.66;5042895;28;20443;-79
2021/03/10 05:27:38;;;;;;;35.73;20.73;;;;;;;4.06;100.00;94379.44;5094093;28;20946;-79
2021/03/10 05:30:07;;;;;;;28.27;18.20;;;;;;;4.06;100.00;94385.47;5094755;28;20500;-77
2021/03/10 05:32:34;;;;;;;33.87;18.07;;;;;;;4.15;100.00;94377.06;5094191;28;20452;-78
2021/03/10 05:35:00;;;;;;;28.57;16.73;;;;;;;4.07;100.00;94368.97;5095288;28;20476;-78
2021/03/10 05:37:27;;;;;;;34.87;19.33;;;;;;;4.03;100.00;94377.88;5094896;28;20440;-78
2021/03/10 05:39:54;;;;;;;34.43;19.33;;;;;;;4.08;100.00;94362.00;5093468;28;20748;-77
2021/03/10 05:42:21;;;;;;;43.17;21.40;;;;;;;4.11;100.00;94375.59;5093802;28;20468;-77
2021/03/10 05:44:50;;;;;;;33.17;19.00;;;;;;;4.12;100.00;94366.88;5093799;28;20950;-77
2021/03/10 05:47:17;;;;;;;34.90;20.80;;;;;;;4.18;100.00;94369.06;5094109;28;20513;-77
2021/03/10 05:49:45;;;;;;;45.13;22.37;;;;;;;4.13;100.00;94365.94;5058884;28;20465;-77
2021/03/10 05:52:12;;;;;;;35.93;20.63;;;;;;;4.16;100.00;94357.09;5042655;28;20443;-77
2021/03/10 05:54:42;;;;;;;35.93;19.87;;;;;;;4.14;100.00;94367.59;5093432;28;20451;-77
2021/03/10 05:57:09;;;;;;;30.70;17.03;;;;;;;4.03;100.00;94376.09;5093343;28;21012;-77
2021/03/10 05:59:35;;;;;;;30.57;18.63;;;;;;;4.08;100.00;94365.44;5056006;28;20450;-77
2021/03/10 06:02:02;;;;;;;26.50;16.47;;;;;;;3.97;100.00;94378.28;5094124;28;20452;-77
2021/03/10 06:04:37;;;;;;;39.33;20.00;;;;;;;3.99;100.00;94373.81;5093975;28;20452;-77
2021/03/10 06:07:04;;;;;;;38.50;20.50;;;;;;;3.90;100.00;94366.66;5094878;28;20486;-80
2021/03/10 06:09:30;;;;;;;37.63;19.90;;;;;;;3.88;100.00;94364.16;5042185;28;20443;-78
2021/03/10 06:11:59;;;;;;;36.27;18.53;;;;;;;3.93;100.00;94376.84;5093975;28;20440;-78
2021/03/10 06:14:26;;;;;;;35.23;20.10;;;;;;;4.02;100.00;94376.19;5093837;28;20451;-79
2021/03/10 06:17:04;;;;;;;29.23;16.27;;;;;;;4.17;100.00;94382.97;5093580;28;20984;-78
2021/03/10 06:19:30;;;;;;;29.33;18.20;;;;;;;3.98;100.00;94383.38;5093525;28;20439;-77
2021/03/10 06:21:56;;;;;;;37.60;20.70;;;;;;;4.18;100.00;94379.44;5093506;28;20778;-77
2021/03/10 06:24:32;;;;;;;30.27;17.37;;;;;;;3.98;100.00;94375.59;5093105;28;20455;-76
2021/03/10 06:26:59;;;;;;;33.83;19.37;;;;;;;3.97;100.00;94378.28;5093639;28;20577;-77
2021/03/10 06:29:26;;;;;;;41.80;25.50;;;;;;;4.03;100.00;94370.91;5093697;28;20474;-76
2021/03/10 06:32:01;;;;;;;27.50;17.20;;;;;;;3.88;100.00;94373.72;5057884;28;20435;-78
2021/03/10 06:34:28;;;;;;;37.73;21.00;;;;;;;3.89;100.00;94378.81;5093310;28;20466;-77
2021/03/10 06:36:54;;;;;;;35.17;20.57;;;;;;;3.83;100.00;94362.81;5093527;28;20537;-76
2021/03/10 06:39:26;;;;;;;20.33;14.23;;;;;;;3.81;100.00;94364.69;5093505;28;20488;-80
2021/03/10 06:41:53;;;;;;;37.07;19.37;;;;;;;3.74;100.00;94362.47;5094075;28;20450;-77
2021/03/10 06:44:22;;;;;;;35.67;19.70;;;;;;;3.79;100.00;94366.56;5041561;28;20439;-77
2021/03/10 06:46:56;;;;;;;33.47;19.70;;;;;;;3.77;100.00;94368.44;5093719;28;20483;-77
2021/03/10 06:49:23;;;;;;;32.77;20.47;;;;;;;3.82;100.00;94367.19;5057705;28;20800;-77
2021/03/10 06:51:55;;;;;;;40.30;22.90;;;;;;;3.81;100.00;94369.88;5092599;28;20661;-76
2021/03/10 06:54:22;;;;;;;52.20;25.83;;;;;;;3.83;100.00;94373.19;5093298;28;20190;-77
2021/03/10 06:56:59;;;;;;;49.27;28.13;;;;;;;3.82;100.00;94379.31;5092412;28;20518;-77
2021/03/10 06:59:27;;;;;;;40.63;21.63;;;;;;;3.83;100.00;94373.19;5092857;28;20447;-77
2021/03/10 07:01:53;;;;;;;40.40;22.40;;;;;;;3.91;100.00;94386.50;5092596;28;20449;-77
2021/03/10 07:04:20;;;;;;;40.77;22.90;;;;;;;3.88;100.00;94391.88;5092727;28;20817;-77
2021/03/10 07:06:49;;;;;;;42.30;24.87;;;;;;;4.03;100.00;94388.25;5049308;28;20499;-77
2021/03/10 07:09:17;;;;;;;46.63;26.03;;;;;;;4.08;100.00;94387.97;5083936;28;20488;-77
2021/03/10 07:11:45;;;;;;;38.60;20.87;;;;;;;4.03;100.00;94393.44;5096597;28;20458;-76
2021/03/10 07:14:12;;;;;;;41.13;22.23;;;;;;;4.03;100.00;94398.63;5045275;28;20475;-77
2021/03/10 07:16:39;;;;;;;51.47;25.47;;;;;;;3.89;100.00;94388.34;5096480;28;20811;-76
2021/03/10 07:19:07;;;;;;;45.70;25.20;;;;;;;3.93;100.00;94390.63;5097028;28;20450;-77
2021/03/10 07:21:39;;;;;;;41.97;23.47;;;;;;;3.99;100.00;94384.19;5096409;28;20447;-77
2021/03/10 07:24:14;;;;;;;43.30;25.17;;;;;;;3.90;100.00;94390.03;5096514;28;20443;-77
2021/03/10 07:26:42;;;;;;;51.73;27.80;;;;;;;3.84;100.00;94382.66;5096510;28;20560;-77
2021/03/10 07:29:10;;;;;;;47.43;28.50;;;;;;;3.82;100.00;94377.56;5097040;28;20458;-77
2021/03/10 07:31:36;;;;;;;212.60;84.23;;;;;;;3.77;100.00;94386.59;5096648;28;20450;-77
2021/03/10 07:34:04;;;;;;;53.27;28.90;;;;;;;3.77;100.00;94389.19;5096377;28;20930;-78
2021/03/10 07:36:36;;;;;;;48.00;27.17;;;;;;;3.82;100.00;94394.91;5096662;28;20431;-77
2021/03/10 07:39:04;;;;;;;56.03;30.97;;;;;;;3.91;100.00;94391.69;5096242;28;20454;-77
2021/03/10 07:41:39;;;;;;;50.67;28.00;;;;;;;3.95;100.00;94383.59;5096260;28;20483;-77
2021/03/10 07:44:19;;;;;;;41.50;24.40;;;;;;;3.90;100.00;94387.44;5096410;28;20977;-77
2021/03/10 07:46:46;;;;;;;34.73;19.33;;;;;;;3.78;100.00;94390.84;5096312;28;20483;-76
2021/03/10 07:49:22;;;;;;;55.87;29.63;;;;;;;3.88;100.00;94391.88;5096331;28;20447;-77
2021/03/10 07:51:49;;;;;;;46.97;26.07;;;;;;;3.76;100.00;94390.94;5096022;28;20443;-77
2021/03/10 07:54:22;;;;;;;54.45;26.85;;;;;;;3.83;100.00;94383.59;5060873;28;20428;-77
2021/03/10 07:56:49;;;;;;;37.97;23.40;;;;;;;3.78;100.00;94383.91;5095785;28;20205;-77
2021/03/10 07:59:17;;;;;;;43.23;24.53;;;;;;;3.85;100.00;94386.91;5095652;28;20785;-77
2021/03/10 08:01:43;;;;;;;42.80;22.20;;;;;;;3.69;100.00;94374.09;5096070;28;20443;-77
2021/03/10 08:04:14;;;;;;;38.77;23.83;;;;;;;3.83;100.00;94386.19;5095881;28;20447;-76
2021/03/10 08:06:46;;;;;;;38.60;23.70;;;;;;;3.81;100.00;94380.25;5095963;28;20486;-77
2021/03/10 08:09:13;;;;;;;37.20;22.93;;;;;;;3.74;100.00;94379.81;5096067;28;20548;-77
2021/03/10 08:11:43;;;;;;;37.50;21.60;;;;;;;3.68;100.00;94382.81;5095431;28;20451;-76
2021/03/10 08:14:11;;;;;;;46.87;24.43;;;;;;;3.79;100.00;94376.94;5095475;28;20500;-77
2021/03/10 08:16:44;;;;;;;47.73;27.50;;;;;;;3.92;100.00;94380.38;5095271;28;20450;-76
2021/03/10 08:19:11;;;;;;;46.40;25.30;;;;;;;3.88;100.00;94377.16;5095512;28;20519;-76
2021/03/10 08:21:48;;;;;;;37.33;22.57;;;;;;;3.84;100.00;94374.88;5095166;28;20972;-76
2021/03/10 08:24:15;;;;;;;44.67;23.40;;;;;;;3.76;100.00;94372.78;5059991;28;20451;-76
2021/03/10 08:26:42;;;;;;;47.73;27.37;;;;;;;3.90;100.00;94362.31;5095681;28;20480;-77
2021/03/10 08:29:09;;;;;;;41.73;24.77;;;;;;;3.67;100.00;94376.81;5095558;28;20942;-77
2021/03/10 08:31:47;;;;;;;44.63;24.27;;;;;;;3.74;100.00;94365.06;5095028;28;20443;-77
2021/03/10 08:34:14;;;;;;;43.00;25.70;;;;;;;3.74;100.00;94365.06;5095175;28;20562;-77
2021/03/10 08:36:41;;;;;;;47.70;27.97;;;;;;;3.79;100.00;94363.97;5095120;28;20472;-77
2021/03/10 08:39:14;;;;;;;44.73;24.90;;;;;;;3.75;100.00;94363.31;5095144;28;20446;-78
2021/03/10 08:41:45;;;;;;;50.20;28.83;;;;;;;3.76;100.00;94361.56;5095022;28;20443;-77
2021/03/10 08:44:12;;;;;;;50.80;27.60;;;;;;;3.78;100.00;94349.34;5095335;28;20492;-77
2021/03/10 08:46:39;;;;;;;38.93;23.13;;;;;;;3.74;100.00;94348.69;5094930;28;20486;-77
2021/03/10 08:49:18;;;;;;;45.83;26.17;;;;;;;3.82;100.00;94353.38;5095315;28;20492;-77
2021/03/10 08:51:44;;;;;;;47.33;26.10;;;;;;;3.92;100.00;94363.03;5044118;28;20497;-77
2021/03/10 08:54:12;;;;;;;40.90;24.83;;;;;;;3.89;100.00;94359.81;5094475;28;20452;-77
2021/03/10 08:56:47;;;;;;;45.53;29.77;;;;;;;3.98;100.00;94356.59;5094960;28;20493;-77
2021/03/10 08:59:14;;;;;;;31.30;20.70;;;;;;;4.05;100.00;94368.25;5094951;28;20439;-77
2021/03/10 09:01:46;;;;;;;32.40;19.63;;;;;;;4.07;100.00;94366.38;5094942;28;20511;-76
2021/03/10 09:04:13;;;;;;;25.47;18.60;;;;;;;4.11;100.00;94354.84;5094837;28;20456;-77
2021/03/10 09:06:39;;;;;;;28.13;17.67;;;;;;;4.20;100.00;94356.78;5043052;28;20479;-77
2021/03/10 09:09:06;;;;;;;26.33;16.63;;;;;;;4.13;100.00;94358.16;5094802;28;20454;-77
2021/03/10 09:11:33;;;;;;;27.07;17.30;;;;;;;4.17;100.00;94361.38;5094960;28;20438;-77
2021/03/10 09:14:00;;;;;;;28.93;18.73;;;;;;;4.21;100.00;94355.03;5094591;28;20448;-77
2021/03/10 09:16:26;;;;;;;30.83;16.87;;;;;;;4.36;100.00;94361.78;5094840;28;20455;-77
2021/03/10 09:18:59;;;;;;;29.00;19.60;;;;;;;4.34;100.00;94359.28;5094647;28;20497;-77
2021/03/10 09:21:26;;;;;;;22.80;16.00;;;;;;;4.19;100.00;94365.53;5094399;28;20892;-77
2021/03/10 09:24:00;;;;;;;32.07;21.53;;;;;;;4.43;100.00;94367.38;5094492;28;20444;-76
2021/03/10 09:26:37;;;;;;;28.63;18.80;;;;;;;4.37;100.00;94358.25;5042938;28;20482;-76
2021/03/10 09:29:03;;;;;;;93.93;64.20;;;;;;;4.41;100.00;94369.25;5058919;28;20447;-77
2021/03/10 09:31:30;;;;;;;39.37;27.10;;;;;;;4.63;100.00;94370.25;5093429;28;20439;-77
2021/03/10 09:34:01;;;;;;;31.77;22.73;;;;;;;4.65;100.00;94367.53;5094667;28;20479;-78
2021/03/10 09:36:28;;;;;;;26.07;19.27;;;;;;;4.68;100.00;94362.13;5094650;28;20513;-77
2021/03/10 09:38:54;;;;;;;21.40;14.13;;;;;;;4.64;100.00;94366.72;5058228;28;20488;-78
2021/03/10 09:41:24;;;;;;;24.63;16.20;;;;;;;4.64;100.00;94373.69;5094159;28;20443;-77
2021/03/10 09:44:02;;;;;;;21.00;14.70;;;;;;;4.73;100.00;94367.81;5094263;28;20496;-76
2021/03/10 09:46:38;;;;;;;28.63;16.00;;;;;;;4.56;100.00;94360.38;5093957;28;20474;-77
2021/03/10 09:49:05;;;;;;;22.30;15.23;;;;;;;4.61;100.00;94366.91;5093861;28;20777;-77
2021/03/10 09:51:31;;;;;;;28.60;18.60;;;;;;;4.67;100.00;94355.28;5093641;28;20835;-76
2021/03/10 09:53:59;;;;;;;19.30;14.90;;;;;;;4.62;100.00;94357.34;5093946;28;20446;-77
2021/03/10 09:56:26;;;;;;;20.80;14.53;;;;;;;4.70;100.00;94362.03;5093722;28;20447;-77
2021/03/10 09:58:55;;;;;;;20.47;13.50;;;;;;;4.76;100.00;94358.97;5093864;28;20448;-77
2021/03/10 10:01:23;;;;;;;26.53;17.47;;;;;;;4.75;100.00;94362.53;5093441;28;21018;-77
2021/03/10 10:03:50;;;;;;;21.43;15.33;;;;;;;4.91;100.00;94357.88;5093843;28;20444;-77
2021/03/10 10:06:18;;;;;;;17.83;14.10;;;;;;;4.88;100.00;94356.31;5093662;28;20478;-77
2021/03/10 10:08:45;;;;;;;21.37;16.70;;;;;;;4.73;100.00;94362.63;5093074;28;20455;-77
2021/03/10 10:11:12;;;;;;;19.87;14.20;;;;;;;4.69;100.00;94361.19;5093888;28;20530;-77
2021/03/10 10:13:41;;;;;;;17.27;13.10;;;;;;;4.68;100.00;94359.53;5093481;28;20850;-77
2021/03/10 10:16:08;;;;;;;20.33;12.90;;;;;;;4.60;100.00;94348.81;5093813;28;20462;-77
2021/03/10 10:18:36;;;;;;;17.00;13.37;;;;;;;4.66;100.00;94356.22;5093538;28;20453;-77
2021/03/10 10:21:03;;;;;;;21.70;15.83;;;;;;;4.70;100.00;94352.44;5074913;28;20450;-76
2021/03/10 10:23:29;;;;;;;17.90;13.90;;;;;;;4.70;100.00;94357.66;5041353;28;20444;-78
2021/03/10 10:25:55;;;;;;;19.73;15.03;;;;;;;4.86;100.00;94350.41;5094157;28;20435;-77
2021/03/10 10:28:22;;;;;;;16.50;12.63;;;;;;;4.79;100.00;94370.00;5093782;28;20526;-77
2021/03/10 10:30:49;;;;;;;22.97;16.63;;;;;;;4.81;100.00;94356.88;5093266;28;20518;-77
2021/03/10 10:33:15;;;;;;;26.83;20.17;;;;;;;4.80;100.00;94366.44;5093626;28;20439;-77
2021/03/10 10:35:43;;;;;;;31.90;20.07;;;;;;;4.87;100.00;94359.88;5093634;28;21043;-77
2021/03/10 10:38:09;;;;;;;24.30;14.97;;;;;;;5.01;100.00;94360.69;5093691;28;20447;-77
2021/03/10 10:40:37;;;;;;;20.77;14.07;;;;;;;5.05;100.00;94356.91;5093734;28;20466;-78
2021/03/10 10:43:04;;;;;;;25.50;16.80;;;;;;;5.09;100.00;94361.78;5093897;28;20440;-78
2021/03/10 10:45:30;;;;;;;26.33;15.30;;;;;;;5.06;100.00;94361.16;5058431;28;20936;-78
2021/03/10 10:47:56;;;;;;;24.63;14.43;;;;;;;5.09;100.00;94356.56;5078688;28;20476;-78
2021/03/10 10:50:23;;;;;;;21.40;15.90;;;;;;;4.99;100.00;94360.78;5097046;28;20497;-77
2021/03/10 10:52:51;;;;;;;14.80;9.13;;;;;;;4.84;99.36;94361.84;5096828;28;20447;-77
2021/03/10 10:55:19;;;;;;;16.63;12.20;;;;;;;4.91;100.00;94360.47;5045798;28;20520;-79
2021/03/10 10:57:46;;;;;;;16.97;11.53;;;;;;;5.06;99.80;94361.16;5097557;28;20519;-78
2021/03/10 11:00:17;;;;;;;20.90;13.47;;;;;;;5.16;99.19;94362.16;5097113;28;20935;-82
2021/03/10 11:02:44;;;;;;;36.23;21.33;;;;;;;5.17;100.00;94343.84;5097708;28;20447;-77
2021/03/10 11:05:11;;;;;;;26.93;17.80;;;;;;;5.20;100.00;94363.59;5096760;28;20439;-77
2021/03/10 11:07:38;;;;;;;25.30;15.70;;;;;;;5.18;100.00;94342.91;5096644;28;20467;-78
2021/03/10 11:10:06;;;;;;;25.80;17.00;;;;;;;5.05;100.00;94359.50;5061577;28;20439;-77
2021/03/10 11:12:33;;;;;;;23.70;15.63;;;;;;;5.04;100.00;94360.44;5061558;28;20451;-77
2021/03/10 11:15:00;;;;;;;24.60;17.43;;;;;;;5.06;100.00;94355.97;5076706;28;20437;-77
2021/03/10 11:17:26;;;;;;;37.40;18.67;;;;;;;5.02;100.00;94359.72;5076120;28;20464;-77
2021/03/10 11:19:52;;;;;;;35.50;20.40;;;;;;;5.04;100.00;94363.06;5041420;28;20444;-76
2021/03/10 11:22:19;;;;;;;23.70;14.00;;;;;;;4.87;100.00;94361.63;5076552;28;20523;-77
2021/03/10 11:24:45;;;;;;;21.20;15.33;;;;;;;4.93;100.00;94363.81;5025034;28;20440;-77